Flag for Palestinian Territories

Past Weather in Nablus, West Bank, Palestinian Territories — Yesterday and Last 2 Weeks

Currently: 75 °F. Clear. (Weather station: Ben Gurion International Airport, Palestinian Territories). See more current weather

Past Weather in Nablus — Graph

°F

Nablus Temperature Yesterday

Maximum temperature yesterday: 88 °F (at 1:20 pm)
Minimum temperature yesterday: 70 °F (at 4:20 am)
Average temperature yesterday: 79 °F

High & Low Weather Summary for the Past Weeks

 TemperatureHumidityPressure
High91 °F (Jun 9, 2:50 pm)88% (Jun 11, 5:20 am)30.01 "Hg (Jun 11, 5:20 am)
Low66 °F (Jun 8, 3:50 am)29% (Jun 12, 11:50 am)29.77 "Hg (Jun 10, 2:20 am)
Average77 °F61%29.89 "Hg
* Reported Jun 7 12:20 am — Jun 22 12:50 am, Nablus. Weather by CustomWeather, © 2021

Note: Actual official high and low records may vary slightly from our data, if they occured in-between our weather recording intervals... More about our weather records

Nablus Weather History for the Previous 24 Hours

Scroll right to see more
 ConditionsComfort  
Time TempWeatherWind HumidityBarometerVisibility
12:50 am
Tue, Jun 22
75 °FClear.1 mph74%29.89 "Hg10 mi
12:20 am75 °FClear.2 mph74%29.89 "Hg10 mi
11:50 pm
Mon, Jun 21
75 °FClear.3 mph74%29.89 "Hg10 mi
11:20 pm77 °FClear.3 mph69%29.89 "Hg10 mi
10:50 pm77 °FClear.3 mph69%29.89 "Hg10 mi
10:20 pm77 °FClear.5 mph69%29.89 "Hg10 mi
9:50 pm79 °FClear.5 mph65%29.89 "Hg10 mi
9:20 pm79 °FClear.5 mph65%29.89 "Hg10 mi
8:50 pm79 °FClear.6 mph65%29.89 "Hg10 mi
8:20 pm79 °FClear.6 mph65%29.89 "Hg10 mi
7:50 pm81 °FClear.8 mph58%29.89 "Hg10 mi
7:20 pm81 °FSunny.10 mph58%29.89 "Hg10 mi
6:50 pm82 °FSunny.10 mph51%29.86 "Hg10 mi
6:20 pm82 °FSunny.12 mph51%29.86 "Hg10 mi
5:50 pm84 °FPassing clouds.10 mph48%29.86 "HgN/A
5:20 pm84 °FPassing clouds.10 mph51%29.86 "HgN/A
4:50 pm84 °FSunny.12 mph48%29.86 "Hg10 mi
4:20 pm84 °FSunny.14 mph51%29.86 "Hg10 mi
3:50 pm84 °FSunny.15 mph48%29.86 "Hg10 mi
3:20 pm86 °FSunny.13 mph38%29.86 "Hg10 mi
2:50 pm86 °FPassing clouds.12 mph35%29.86 "HgN/A
2:20 pm88 °FPassing clouds.12 mph33%29.86 "HgN/A
1:50 pm86 °FPassing clouds.13 mph35%29.86 "HgN/A
1:20 pm88 °FPassing clouds.12 mph33%29.86 "HgN/A
12:50 pm86 °FSunny.13 mph33%29.89 "Hg10 mi
12:20 pm86 °FPassing clouds.8 mph33%29.89 "HgN/A
11:50 am86 °FPassing clouds.9 mph35%29.89 "HgN/A
11:20 am86 °FSunny.3 mph35%29.89 "Hg10 mi
10:50 am84 °FPassing clouds.5 mph37%29.89 "HgN/A
9:50 am81 °FPassing clouds.5 mph45%29.89 "HgN/A
9:20 am81 °FSunny.2 mph48%29.89 "Hg10 mi
8:50 am79 °FPassing clouds.5 mph58%29.89 "HgN/A
8:20 am77 °FSunny.3 mph61%29.89 "Hg10 mi
7:50 am73 °FPassing clouds.5 mph61%29.89 "HgN/A
7:20 am73 °FSunny.5 mph61%29.86 "Hg10 mi
6:50 am72 °FSunny.3 mph73%29.86 "Hg10 mi
6:20 am70 °FSunny.3 mph78%29.86 "Hg10 mi
5:50 am70 °FSunny.2 mph78%29.86 "Hg10 mi
5:20 am70 °FClear.2 mph78%29.86 "Hg10 mi
4:50 am70 °FPassing clouds.5 mph78%29.83 "HgN/A
4:20 am70 °FPassing clouds.5 mph78%29.83 "HgN/A
3:50 am72 °FPassing clouds.5 mph73%29.83 "HgN/A
3:20 am72 °FPassing clouds.6 mph78%29.83 "HgN/A
2:50 am72 °FPassing clouds.5 mph78%29.83 "HgN/A
2:20 am72 °FPassing clouds.6 mph78%29.83 "HgN/A
1:50 am73 °FPassing clouds.7 mph74%29.83 "HgN/A
1:20 am73 °FPassing clouds.5 mph74%29.86 "HgN/A
Weather by CustomWeather, © 2021

See weather overview